Time;durP1;ratioP1;P1;durP2;ratioP2;P2;SDS_P1;SDS_P2;PMS_P1;PMS_P2;Temp;Humidity;BMP_temperature;BMP_pressure;BME280_temperature;BME280_humidity;BME280_pressure;Samples;Min_cycle;Max_cycle;Signal;HPM_P1;HPM_P2
2024/04/21 00:01:34;;;;;;;14.40;2.28;;;3.90;99.90;;;;;;5501451;26;20006;-85
2024/04/21 00:04:01;;;;;;;8.35;1.48;;;3.70;99.90;;;;;;5533420;26;20364;-84
2024/04/21 00:06:47;;;;;;;11.15;1.33;;;3.80;99.90;;;;;;5489036;26;20003;-85
2024/04/21 00:09:14;;;;;;;8.57;1.50;;;4.10;99.90;;;;;;5525106;26;20010;-85
2024/04/21 00:11:41;;;;;;;5.63;1.30;;;4.40;99.90;;;;;;5507323;26;20006;-85
2024/04/21 00:14:09;;;;;;;7.85;1.70;;;3.90;99.90;;;;;;5486671;26;20056;-85
2024/04/21 00:16:35;;;;;;;14.10;1.85;;;4.10;99.90;;;;;;5492246;26;20006;-85
2024/04/21 00:19:19;;;;;;;9.55;1.80;;;3.90;99.90;;;;;;5496644;26;20013;-84
2024/04/21 00:21:46;;;;;;;10.38;2.58;;;3.80;99.90;;;;;;5495091;26;20350;-85
2024/04/21 00:24:13;;;;;;;8.35;1.13;;;3.80;99.90;;;;;;5494561;26;20050;-85
2024/04/21 00:26:40;;;;;;;12.57;1.98;;;4.80;99.90;;;;;;5501989;26;20351;-85
2024/04/21 00:29:08;;;;;;;13.93;2.08;;;4.40;99.90;;;;;;5497724;26;20021;-85
2024/04/21 00:31:34;;;;;;;12.35;2.55;;;4.00;99.90;;;;;;5484863;26;20006;-85
2024/04/21 00:34:01;;;;;;;10.95;1.73;;;4.30;99.90;;;;;;5494891;26;20018;-85
2024/04/21 00:36:28;;;;;;;11.20;1.50;;;3.90;99.90;;;;;;5555971;26;20017;-85
2024/04/21 00:38:55;;;;;;;7.55;1.63;;;4.80;99.90;;;;;;5561286;26;20464;-85
2024/04/21 00:41:23;;;;;;;15.77;1.88;;;4.50;99.90;;;;;;5497984;26;20006;-85
2024/04/21 00:43:50;;;;;;;8.35;1.75;;;4.70;99.90;;;;;;5532965;26;20017;-85
2024/04/21 00:46:17;;;;;;;9.75;1.80;;;4.30;99.90;;;;;;5494823;26;20354;-84
2024/04/21 00:48:44;;;;;;;12.57;1.67;;;4.00;99.90;;;;;;5509740;26;20838;-85
2024/04/21 00:51:11;;;;;;;6.72;1.55;;;3.90;99.90;;;;;;5539774;26;20595;-85
2024/04/21 00:53:38;;;;;;;12.52;1.45;;;4.70;99.90;;;;;;5513975;26;20014;-85
2024/04/21 00:56:06;;;;;;;9.38;1.77;;;3.90;99.90;;;;;;5483153;26;20017;-85
2024/04/21 00:58:33;;;;;;;8.57;1.55;;;3.90;99.90;;;;;;5494655;26;20459;-85
2024/04/21 01:01:01;;;;;;;13.10;1.65;;;3.90;99.90;;;;;;5500701;26;20078;-84
2024/04/21 01:03:28;;;;;;;5.93;1.35;;;4.90;99.90;;;;;;5530096;26;20378;-85
2024/04/21 01:05:55;;;;;;;4.30;1.00;;;4.30;99.90;;;;;;5513103;26;20017;-85
2024/04/21 01:08:22;;;;;;;5.90;1.10;;;3.90;99.90;;;;;;5501726;26;20082;-85
2024/04/21 01:10:48;;;;;;;4.80;1.10;;;3.90;99.90;;;;;;5497855;26;20523;-85
2024/04/21 01:13:15;;;;;;;6.90;1.25;;;4.00;99.90;;;;;;5515015;26;20083;-84
2024/04/21 01:15:42;;;;;;;9.90;1.33;;;4.30;99.90;;;;;;5532954;26;20018;-85
2024/04/21 01:18:09;;;;;;;8.63;1.38;;;4.40;99.90;;;;;;5516337;26;20003;-84
2024/04/21 01:20:36;;;;;;;9.18;1.70;;;4.00;99.90;;;;;;5504856;26;20017;-85
2024/04/21 01:23:03;;;;;;;7.93;1.52;;;4.20;99.90;;;;;;5492166;26;20006;-85
2024/04/21 01:25:30;;;;;;;5.55;1.50;;;4.40;99.90;;;;;;5480190;26;20029;-85
2024/04/21 01:27:57;;;;;;;8.27;2.03;;;4.50;99.90;;;;;;5494443;26;20006;-85
2024/04/21 01:30:24;;;;;;;5.70;1.10;;;3.50;99.90;;;;;;5527000;26;20002;-84
2024/04/21 01:33:11;;;;;;;6.30;1.52;;;3.40;99.90;;;;;;5489328;26;20002;-84
2024/04/21 01:35:37;;;;;;;7.63;1.55;;;3.40;99.90;;;;;;5496911;26;20070;-84
2024/04/21 01:38:04;;;;;;;4.55;1.20;;;4.00;99.90;;;;;;5528336;26;20094;-84
2024/04/21 01:40:31;;;;;;;8.02;1.20;;;3.20;99.90;;;;;;5556435;26;20006;-84
2024/04/21 01:42:58;;;;;;;5.60;1.02;;;4.00;99.90;;;;;;5528479;26;20007;-84
2024/04/21 01:45:24;;;;;;;4.45;1.02;;;3.70;99.90;;;;;;5529199;26;20007;-84
2024/04/21 01:47:51;;;;;;;6.15;1.27;;;3.60;99.90;;;;;;5495993;26;20002;-84
2024/04/21 01:50:18;;;;;;;8.15;1.05;;;3.20;99.90;;;;;;5476009;26;20384;-84
2024/04/21 01:52:45;;;;;;;5.70;1.42;;;3.00;99.90;;;;;;5497562;26;20510;-84
2024/04/21 01:55:11;;;;;;;5.15;0.90;;;3.00;99.90;;;;;;5485384;26;20020;-84
2024/04/21 01:57:38;;;;;;;6.00;1.15;;;3.60;99.90;;;;;;5503186;26;20021;-84
2024/04/21 02:00:06;;;;;;;6.80;1.00;;;2.80;99.90;;;;;;5493301;26;20010;-84
2024/04/21 02:02:32;;;;;;;5.70;1.13;;;2.80;99.90;;;;;;5544320;26;20022;-84
2024/04/21 02:04:59;;;;;;;3.97;1.17;;;2.80;99.90;;;;;;5527694;26;20347;-84
2024/04/21 02:07:26;;;;;;;4.35;0.95;;;2.70;99.90;;;;;;5510255;26;20419;-84
2024/04/21 02:09:53;;;;;;;7.07;1.00;;;2.70;99.90;;;;;;5509556;26;20020;-84
2024/04/21 02:12:19;;;;;;;4.05;0.93;;;2.70;99.90;;;;;;5506380;26;20442;-84
2024/04/21 02:14:46;;;;;;;6.57;1.10;;;2.60;99.90;;;;;;5532290;26;20342;-84
2024/04/21 02:17:13;;;;;;;4.68;1.23;;;2.60;99.90;;;;;;5555114;26;20006;-85
2024/04/21 02:19:39;;;;;;;3.88;1.27;;;3.20;99.90;;;;;;5497133;26;20447;-84
2024/04/21 02:22:06;;;;;;;12.48;1.17;;;2.50;99.90;;;;;;5500774;26;20017;-84
2024/04/21 02:24:41;;;;;;;6.95;1.10;;;3.00;99.90;;;;;;5520030;26;20014;-84
2024/04/21 02:27:08;;;;;;;8.85;1.40;;;2.40;99.90;;;;;;5496894;26;20006;-84
2024/04/21 02:29:34;;;;;;;9.75;1.10;;;2.40;99.90;;;;;;5530639;26;20021;-84
2024/04/21 02:32:02;;;;;;;7.75;1.08;;;2.30;99.90;;;;;;5536366;26;20039;-84
2024/04/21 02:34:29;;;;;;;6.00;1.33;;;2.30;99.90;;;;;;5545309;26;20845;-84
2024/04/21 02:36:55;;;;;;;5.28;1.33;;;2.30;99.90;;;;;;5492056;26;20455;-84
2024/04/21 02:39:22;;;;;;;7.88;1.50;;;2.60;99.90;;;;;;5513833;26;20006;-84
2024/04/21 02:41:49;;;;;;;6.25;1.20;;;2.20;99.90;;;;;;5550239;26;20348;-85
2024/04/21 02:44:16;;;;;;;3.17;0.70;;;2.10;99.90;;;;;;5496520;26;20006;-84
2024/04/21 02:46:43;;;;;;;5.68;1.52;;;2.10;99.90;;;;;;5492981;26;20006;-84
2024/04/21 02:49:10;;;;;;;7.60;1.20;;;2.00;99.90;;;;;;5510346;26;20005;-84
2024/04/21 02:51:36;;;;;;;9.02;1.50;;;2.10;99.90;;;;;;5542254;26;20359;-84
2024/04/21 02:54:04;;;;;;;5.97;1.02;;;2.00;99.90;;;;;;5495853;26;20002;-84
2024/04/21 02:56:34;;;;;;;5.60;1.42;;;2.30;99.90;;;;;;5495516;26;20006;-84
2024/04/21 02:59:01;;;;;;;7.25;1.08;;;1.90;99.90;;;;;;5490083;26;20545;-84
2024/04/21 03:01:48;;;;;;;3.80;0.80;;;1.90;99.90;;;;;;5501306;26;20017;-84
2024/04/21 03:04:18;;;;;;;4.38;1.27;;;1.80;99.90;;;;;;5480317;26;20003;-84
2024/04/21 03:06:48;;;;;;;5.38;1.23;;;1.80;99.90;;;;;;5453678;26;20015;-84
2024/04/21 03:09:15;;;;;;;6.30;1.10;;;1.80;99.90;;;;;;5513886;26;20050;-84
2024/04/21 03:11:42;;;;;;;3.47;0.95;;;1.80;99.90;;;;;;5453887;26;20012;-84
2024/04/21 03:14:09;;;;;;;4.05;1.10;;;2.80;99.90;;;;;;5423750;26;20016;-84
2024/04/21 03:16:55;;;;;;;5.18;1.08;;;1.80;99.90;;;;;;5446906;26;20004;-84
2024/04/21 03:19:42;;;;;;;4.03;1.13;;;1.70;99.90;;;;;;5420322;26;20015;-84
2024/04/21 03:22:29;;;;;;;5.05;1.10;;;1.70;99.90;;;;;;5446558;26;20539;-84
2024/04/21 03:25:16;;;;;;;6.07;1.10;;;2.70;99.90;;;;;;5476188;26;20015;-84
2024/04/21 03:28:02;;;;;;;4.38;1.48;;;1.60;99.90;;;;;;5428755;26;20018;-84
2024/04/21 03:31:00;;;;;;;5.38;1.35;;;1.60;99.90;;;;;;5411705;26;20008;-84
2024/04/21 03:33:47;;;;;;;3.58;1.60;;;1.60;99.90;;;;;;5425720;26;20015;-84
2024/04/21 03:36:34;;;;;;;6.93;1.85;;;1.50;99.90;;;;;;5414815;26;20073;-84
2024/04/21 03:39:21;;;;;;;14.32;1.95;;;1.50;99.90;;;;;;5418247;26;20004;-84
2024/04/21 03:42:07;;;;;;;13.48;2.20;;;2.30;99.90;;;;;;5467019;26;20004;-84
2024/04/21 03:44:54;;;;;;;8.88;1.63;;;1.50;99.90;;;;;;5415933;26;20018;-84
2024/04/21 03:47:41;;;;;;;4.50;1.50;;;1.40;99.90;;;;;;5444574;26;20011;-84
2024/04/21 03:50:28;;;;;;;4.93;1.52;;;2.10;99.90;;;;;;5425965;26;20361;-84
2024/04/21 03:53:17;;;;;;;9.93;1.70;;;1.40;99.90;;;;;;5419403;26;20004;-84
2024/04/21 03:56:04;;;;;;;6.97;1.77;;;2.20;99.90;;;;;;5427700;26;20076;-83
2024/04/21 03:58:51;;;;;;;9.30;1.85;;;1.50;99.90;;;;;;5442771;26;20341;-84
2024/04/21 04:01:37;;;;;;;7.07;1.70;;;1.40;99.90;;;;;;5421567;26;20007;-84
2024/04/21 04:04:24;;;;;;;8.90;1.95;;;2.20;99.90;;;;;;5437390;26;20003;-83
2024/04/21 04:07:11;;;;;;;5.35;1.55;;;1.50;99.90;;;;;;5433225;26;20019;-84
2024/04/21 04:09:57;;;;;;;4.22;1.10;;;1.50;99.90;;;;;;5452729;26;20020;-83
2024/04/21 04:12:45;;;;;;;5.25;1.52;;;1.60;99.90;;;;;;5436467;26;20077;-84
2024/04/21 04:15:32;;;;;;;6.00;1.60;;;1.60;99.90;;;;;;5423857;26;20098;-84
2024/04/21 04:18:18;;;;;;;6.85;1.35;;;1.70;99.90;;;;;;5476540;26;20009;-84
2024/04/21 04:21:05;;;;;;;8.25;1.30;;;1.80;99.90;;;;;;5457856;26;20057;-84
2024/04/21 04:23:52;;;;;;;5.47;1.65;;;1.90;99.90;;;;;;5452484;26;20090;-84
2024/04/21 04:26:38;;;;;;;5.97;1.50;;;2.00;99.90;;;;;;5418014;26;20013;-84
2024/04/21 04:29:25;;;;;;;7.28;1.80;;;3.10;99.90;;;;;;5464221;26;20002;-84
2024/04/21 04:32:12;;;;;;;4.82;1.55;;;2.10;99.90;;;;;;5442458;26;20004;-84
2024/04/21 04:34:39;;;;;;;7.43;1.90;;;2.20;99.90;;;;;;5466576;26;20000;-83
2024/04/21 04:37:07;;;;;;;9.90;1.70;;;2.30;99.90;;;;;;5478062;26;20018;-84
2024/04/21 04:39:35;;;;;;;5.60;1.90;;;2.40;99.90;;;;;;5452880;26;20018;-84
2024/04/21 04:42:22;;;;;;;12.90;1.95;;;2.40;99.90;;;;;;5461134;26;20007;-84
2024/04/21 04:45:09;;;;;;;9.68;2.33;;;2.40;99.90;;;;;;5456719;26;20003;-84
2024/04/21 04:47:56;;;;;;;5.55;1.45;;;3.00;99.90;;;;;;5428499;26;20004;-84
2024/04/21 04:50:22;;;;;;;10.25;2.00;;;2.50;99.90;;;;;;5460725;26;20076;-84
2024/04/21 04:53:09;;;;;;;9.55;2.10;;;2.60;99.90;;;;;;5406915;26;20016;-84
2024/04/21 04:55:36;;;;;;;10.18;2.13;;;3.60;99.90;;;;;;5451129;26;20348;-84
2024/04/21 04:58:03;;;;;;;10.15;2.33;;;3.50;99.90;;;;;;5449725;26;20004;-84
2024/04/21 05:00:30;;;;;;;8.32;1.90;;;2.60;99.90;;;;;;5469415;26;20019;-84
2024/04/21 05:02:57;;;;;;;8.43;1.90;;;3.40;99.90;;;;;;5469360;26;20345;-84
2024/04/21 05:05:24;;;;;;;12.98;2.25;;;3.70;99.90;;;;;;5492669;26;20034;-84
2024/04/21 05:07:51;;;;;;;14.63;2.47;;;3.20;99.90;;;;;;5501812;26;19999;-84
2024/04/21 05:10:37;;;;;;;9.98;2.30;;;3.60;99.90;;;;;;5482073;26;20006;-84
2024/04/21 05:13:04;;;;;;;9.75;2.00;;;2.70;99.90;;;;;;5494987;26;20488;-84
2024/04/21 05:15:31;;;;;;;9.50;2.80;;;2.60;99.90;;;;;;5522254;26;20018;-84
2024/04/21 05:17:58;;;;;;;9.88;1.75;;;2.60;99.90;;;;;;5509900;26;20021;-84
2024/04/21 05:20:24;;;;;;;7.47;2.10;;;2.80;99.90;;;;;;5518600;26;20077;-84
2024/04/21 05:22:51;;;;;;;11.18;2.50;;;3.60;99.90;;;;;;5505084;26;20021;-85
2024/04/21 05:25:18;;;;;;;8.75;2.17;;;2.60;99.90;;;;;;5534155;26;20021;-84
2024/04/21 05:27:45;;;;;;;11.55;2.10;;;2.60;99.90;;;;;;5494667;26;20023;-84
2024/04/21 05:30:12;;;;;;;9.10;1.88;;;3.50;99.90;;;;;;5493811;26;20420;-84
2024/04/21 05:32:39;;;;;;;11.63;2.70;;;2.60;99.90;;;;;;5503230;26;20022;-84
2024/04/21 05:35:05;;;;;;;11.30;2.08;;;3.20;99.90;;;;;;5509647;26;20451;-84
2024/04/21 05:37:32;;;;;;;12.48;2.42;;;2.70;99.90;;;;;;5513295;26;20018;-84
2024/04/21 05:39:59;;;;;;;14.70;2.30;;;2.70;99.90;;;;;;5504837;26;20352;-84
2024/04/21 05:42:26;;;;;;;10.80;2.55;;;2.80;99.90;;;;;;5462456;26;20010;-84
2024/04/21 05:44:53;;;;;;;10.05;2.38;;;3.50;99.90;;;;;;5504581;26;20428;-84
2024/04/21 05:47:20;;;;;;;7.47;1.85;;;3.40;99.90;;;;;;5486304;26;20010;-84
2024/04/21 05:49:47;;;;;;;10.00;2.22;;;3.10;99.90;;;;;;5497404;26;20016;-84
2024/04/21 05:52:14;;;;;;;8.85;1.92;;;3.00;99.90;;;;;;5491635;26;20007;-83
2024/04/21 05:54:41;;;;;;;8.45;1.83;;;3.60;99.90;;;;;;5509656;26;20006;-84
2024/04/21 05:57:08;;;;;;;10.52;2.10;;;3.10;99.90;;;;;;5497422;26;20020;-84
2024/04/21 05:59:34;;;;;;;8.60;1.70;;;3.10;99.90;;;;;;5496801;26;20021;-84
2024/04/21 06:02:01;;;;;;;8.45;1.90;;;3.20;99.90;;;;;;5557209;26;20017;-84
2024/04/21 06:04:30;;;;;;;6.40;1.77;;;3.20;99.90;;;;;;5548415;25;20005;-83
2024/04/21 06:06:58;;;;;;;11.90;2.00;;;3.80;99.90;;;;;;5503600;26;20416;-84
2024/04/21 06:09:25;;;;;;;7.07;2.00;;;3.40;99.90;;;;;;5545266;26;20462;-84
2024/04/21 06:11:52;;;;;;;9.23;1.67;;;3.40;99.90;;;;;;5508178;26;20340;-84
2024/04/21 06:14:19;;;;;;;13.13;1.90;;;3.50;99.90;;;;;;5497276;26;20013;-84
2024/04/21 06:16:46;;;;;;;6.47;1.60;;;4.40;99.90;;;;;;5515885;26;20006;-84
2024/04/21 06:19:13;;;;;;;11.25;2.45;;;4.50;99.90;;;;;;5496648;26;20454;-84
2024/04/21 06:21:40;;;;;;;6.93;1.83;;;3.70;99.90;;;;;;5521143;26;20469;-84
2024/04/21 06:24:06;;;;;;;9.65;1.60;;;4.70;99.90;;;;;;5506960;26;20014;-84
2024/04/21 06:26:33;;;;;;;8.82;1.85;;;3.80;99.90;;;;;;5520745;26;20006;-86
2024/04/21 06:29:00;;;;;;;6.70;1.98;;;3.80;99.90;;;;;;5496768;26;20022;-84
2024/04/21 06:31:27;;;;;;;10.80;2.03;;;4.20;99.90;;;;;;5505642;26;20024;-84
2024/04/21 06:33:53;;;;;;;8.48;2.10;;;3.90;99.90;;;;;;5496417;26;20006;-84
2024/04/21 06:36:20;;;;;;;7.47;2.08;;;4.40;99.90;;;;;;5501045;26;20081;-84
2024/04/21 06:38:47;;;;;;;6.70;2.50;;;4.10;99.90;;;;;;5496383;26;20008;-84
2024/04/21 06:41:14;;;;;;;8.63;2.70;;;4.10;99.90;;;;;;5491101;26;20424;-84
2024/04/21 06:43:41;;;;;;;8.13;2.70;;;4.20;99.90;;;;;;5500519;26;20004;-84
2024/04/21 06:46:08;;;;;;;7.57;2.47;;;5.30;99.90;;;;;;5493308;26;20006;-84
2024/04/21 06:48:35;;;;;;;7.15;2.50;;;4.40;99.90;;;;;;5526898;26;20021;-84
2024/04/21 06:51:02;;;;;;;6.70;2.63;;;4.50;99.90;;;;;;5526621;26;20086;-84
2024/04/21 06:53:30;;;;;;;9.70;3.00;;;4.70;99.90;;;;;;5522371;26;20018;-84
2024/04/21 06:55:57;;;;;;;7.95;3.00;;;4.80;99.90;;;;;;5536787;26;20447;-84
2024/04/21 06:58:24;;;;;;;9.18;2.97;;;4.90;99.90;;;;;;5544768;26;20910;-84
2024/04/21 07:00:51;;;;;;;7.30;2.80;;;5.50;99.90;;;;;;5491186;26;20014;-84
2024/04/21 07:03:17;;;;;;;8.90;3.70;;;5.00;99.90;;;;;;5496597;26;20369;-84
2024/04/21 07:05:45;;;;;;;11.88;3.13;;;5.80;99.90;;;;;;5507516;26;20005;-85
2024/04/21 07:08:12;;;;;;;7.00;2.80;;;4.90;99.90;;;;;;5500093;26;20019;-84
2024/04/21 07:10:42;;;;;;;6.80;3.00;;;5.00;99.90;;;;;;5507921;26;20006;-84
2024/04/21 07:13:08;;;;;;;6.50;3.03;;;5.10;99.90;;;;;;5465112;26;20006;-84
2024/04/21 07:15:36;;;;;;;8.90;3.72;;;5.20;99.90;;;;;;5483680;26;20409;-84
2024/04/21 07:18:03;;;;;;;6.25;3.15;;;5.30;99.90;;;;;;5524304;26;20022;-84
2024/04/21 07:20:30;;;;;;;5.38;3.00;;;5.30;99.90;;;;;;5530510;26;20051;-84
2024/04/21 07:22:56;;;;;;;7.85;3.17;;;5.40;99.90;;;;;;5525799;26;20037;-84
2024/04/21 07:25:24;;;;;;;6.82;3.10;;;5.60;99.90;;;;;;5498805;26;20007;-85
2024/04/21 07:27:53;;;;;;;6.93;3.30;;;5.50;99.90;;;;;;5513990;26;20522;-85
2024/04/21 07:30:19;;;;;;;5.45;2.90;;;5.50;99.90;;;;;;5502682;26;20014;-85
2024/04/21 07:32:46;;;;;;;6.97;2.97;;;5.80;99.90;;;;;;5492182;26;20002;-86
2024/04/21 07:35:14;;;;;;;6.78;3.25;;;5.70;99.90;;;;;;5467164;26;20014;-85
2024/04/21 07:37:40;;;;;;;8.73;2.90;;;6.00;99.90;;;;;;5523787;26;20013;-85
2024/04/21 07:40:07;;;;;;;5.57;2.72;;;6.00;99.90;;;;;;5491335;26;20355;-85
2024/04/21 07:42:42;;;;;;;6.13;2.95;;;6.10;99.90;;;;;;5527791;26;20344;-85
2024/04/21 07:45:11;;;;;;;4.20;2.60;;;6.20;99.90;;;;;;5516991;25;20025;-85
2024/04/21 07:47:38;;;;;;;5.93;2.85;;;7.30;99.90;;;;;;5549879;26;20021;-86
2024/04/21 07:50:05;;;;;;;6.72;2.92;;;6.40;99.90;;;;;;5491053;26;20006;-86
2024/04/21 07:52:32;;;;;;;8.63;3.17;;;6.60;99.90;;;;;;5474461;26;20359;-86
2024/04/21 07:54:59;;;;;;;5.47;2.80;;;7.70;99.90;;;;;;5525859;26;20006;-86
2024/04/21 07:57:26;;;;;;;4.38;2.40;;;6.80;99.90;;;;;;5455540;26;20015;-86
2024/04/21 07:59:52;;;;;;;4.97;2.50;;;7.10;99.90;;;;;;5528169;26;20041;-86
2024/04/21 08:02:19;;;;;;;4.75;2.42;;;6.90;99.90;;;;;;5520438;26;20086;-86
2024/04/21 08:04:46;;;;;;;6.28;3.00;;;7.10;99.90;;;;;;5514449;26;20069;-86
2024/04/21 08:07:13;;;;;;;5.35;2.58;;;7.50;99.90;;;;;;5486087;26;20016;-85
2024/04/21 08:09:40;;;;;;;5.82;2.80;;;7.60;99.90;;;;;;5472915;26;20015;-86
2024/04/21 08:12:07;;;;;;;4.97;2.55;;;7.30;99.90;;;;;;5506988;26;20017;-86
2024/04/21 08:14:33;;;;;;;7.78;2.88;;;7.30;99.90;;;;;;5522728;26;20038;-86
2024/04/21 08:17:00;;;;;;;6.90;3.17;;;7.40;99.90;;;;;;5518546;26;20017;-85
2024/04/21 08:19:27;;;;;;;3.75;2.30;;;7.30;99.90;;;;;;5486690;26;20005;-85
2024/04/21 08:21:54;;;;;;;4.22;2.40;;;7.40;99.90;;;;;;5528233;26;20829;-85
2024/04/21 08:24:21;;;;;;;4.75;2.55;;;8.00;99.90;;;;;;5519502;26;20002;-85
2024/04/21 08:26:54;;;;;;;6.25;2.60;;;7.90;99.90;;;;;;5487579;26;20005;-87
2024/04/21 08:29:23;;;;;;;4.70;2.47;;;8.00;99.90;;;;;;5528342;26;20077;-85
2024/04/21 08:31:51;;;;;;;6.43;2.88;;;8.10;99.90;;;;;;5500842;26;20343;-86
2024/04/21 08:34:22;;;;;;;5.03;2.20;;;8.10;99.90;;;;;;5533166;26;20009;-86
2024/04/21 08:36:49;;;;;;;6.85;2.42;;;8.50;99.90;;;;;;5542799;26;20020;-86
2024/04/21 08:39:16;;;;;;;4.38;2.67;;;8.30;99.90;;;;;;5521512;26;20017;-86
2024/04/21 08:41:43;;;;;;;4.60;2.72;;;8.30;99.90;;;;;;5497173;26;20009;-86
2024/04/21 08:44:14;;;;;;;4.30;2.40;;;8.40;99.90;;;;;;5504480;26;20020;-86
2024/04/21 08:46:42;;;;;;;5.45;2.30;;;8.50;99.90;;;;;;5521651;26;20010;-85
2024/04/21 08:49:09;;;;;;;3.88;2.20;;;8.60;99.90;;;;;;5495505;26;20082;-85
2024/04/21 08:51:37;;;;;;;3.47;2.00;;;8.60;99.90;;;;;;5485242;26;20006;-86
2024/04/21 08:54:04;;;;;;;3.58;2.03;;;8.80;99.90;;;;;;5493925;26;20017;-86
2024/04/21 08:56:32;;;;;;;3.85;1.92;;;8.80;99.90;;;;;;5497174;26;20356;-86
2024/04/21 08:58:59;;;;;;;3.72;1.70;;;9.00;99.90;;;;;;5490724;26;20355;-86
2024/04/21 09:01:26;;;;;;;5.68;2.13;;;8.70;99.90;;;;;;5504799;26;20026;-87
2024/04/21 09:03:53;;;;;;;3.65;1.67;;;8.90;99.90;;;;;;5494502;26;20006;-86
2024/04/21 09:06:25;;;;;;;3.22;1.83;;;9.00;99.90;;;;;;5526635;26;20527;-86
2024/04/21 09:09:07;;;;;;;4.22;2.05;;;9.20;99.90;;;;;;5517324;26;20447;-86
2024/04/21 09:11:34;;;;;;;4.60;2.10;;;10.00;99.90;;;;;;5494347;26;20017;-87
2024/04/21 09:14:01;;;;;;;4.80;1.83;;;9.90;99.90;;;;;;5513690;26;20006;-86
2024/04/21 09:16:28;;;;;;;3.60;1.60;;;9.60;99.90;;;;;;5514475;26;20459;-86
2024/04/21 09:18:56;;;;;;;4.30;1.80;;;10.20;99.90;;;;;;5511363;26;20007;-86
2024/04/21 09:21:23;;;;;;;3.45;1.67;;;9.20;99.90;;;;;;5514374;26;20102;-86
2024/04/21 09:23:50;;;;;;;3.78;2.00;;;8.90;99.90;;;;;;5509637;26;20020;-86
2024/04/21 09:26:17;;;;;;;5.70;2.03;;;9.40;99.90;;;;;;5498693;26;20021;-85
2024/04/21 09:28:44;;;;;;;3.20;1.80;;;9.20;99.90;;;;;;5521176;26;20390;-85
2024/04/21 09:31:12;;;;;;;2.85;1.40;;;9.90;99.90;;;;;;5494137;26;20007;-88
2024/04/21 09:33:39;;;;;;;2.95;1.70;;;9.10;99.90;;;;;;5495575;26;20038;-86
2024/04/21 09:36:06;;;;;;;3.50;1.70;;;9.20;99.90;;;;;;5494439;26;20021;-86
2024/04/21 09:38:34;;;;;;;3.83;1.95;;;9.30;99.90;;;;;;5525200;26;20462;-86
2024/04/21 09:41:03;;;;;;;3.00;1.60;;;9.40;99.90;;;;;;5521994;26;20006;-86
2024/04/21 09:43:32;;;;;;;3.70;1.50;;;9.50;99.90;;;;;;5518979;26;20012;-86
2024/04/21 09:46:00;;;;;;;3.10;1.60;;;9.80;99.90;;;;;;5504103;26;20007;-87
2024/04/21 09:48:30;;;;;;;4.00;1.95;;;9.60;99.90;;;;;;5497682;26;20002;-86
2024/04/21 09:50:58;;;;;;;2.90;1.65;;;9.80;99.90;;;;;;5556119;26;20499;-87
2024/04/21 09:53:28;;;;;;;3.95;1.63;;;9.60;99.90;;;;;;5505799;26;20013;-85
2024/04/21 09:55:56;;;;;;;3.47;1.60;;;9.30;99.90;;;;;;5522427;26;20005;-89
2024/04/21 09:58:28;;;;;;;4.50;1.77;;;9.10;99.90;;;;;;5529461;26;20041;-86
2024/04/21 10:01:00;;;;;;;4.97;1.80;;;9.10;99.90;;;;;;5497742;26;20017;-86
2024/04/21 10:03:27;;;;;;;2.63;1.38;;;9.40;99.90;;;;;;5496748;26;20502;-86
2024/04/21 10:05:56;;;;;;;2.78;1.50;;;9.80;99.90;;;;;;5587433;25;20080;-86
2024/04/21 10:08:27;;;;;;;3.55;1.40;;;10.60;99.90;;;;;;5487927;26;20013;-86
2024/04/21 10:10:54;;;;;;;3.03;1.30;;;10.20;99.90;;;;;;5521365;26;20006;-86
2024/04/21 10:13:21;;;;;;;2.53;1.38;;;10.50;99.90;;;;;;5529011;26;20038;-87
2024/04/21 10:15:50;;;;;;;2.40;1.30;;;11.10;99.90;;;;;;5475015;26;20006;-86
2024/04/21 10:18:23;;;;;;;2.13;1.10;;;10.80;99.90;;;;;;5529416;26;20006;-86
2024/04/21 10:20:50;;;;;;;3.22;1.88;;;10.90;99.90;;;;;;5497308;26;20010;-86
2024/04/21 10:23:17;;;;;;;2.25;1.27;;;11.00;99.90;;;;;;5529455;26;20021;-86
2024/04/21 10:25:46;;;;;;;2.60;1.48;;;11.00;99.90;;;;;;5475044;26;20015;-86
2024/04/21 10:28:15;;;;;;;3.10;1.38;;;11.30;99.90;;;;;;5553182;26;20006;-86
2024/04/21 10:30:41;;;;;;;2.58;1.30;;;11.10;99.90;;;;;;5498180;26;20006;-86
2024/04/21 10:33:10;;;;;;;2.50;1.40;;;11.10;99.90;;;;;;5533834;26;20006;-86
2024/04/21 10:35:38;;;;;;;2.80;1.50;;;11.00;99.90;;;;;;5563189;26;20038;-86
2024/04/21 10:38:07;;;;;;;3.78;1.50;;;10.80;99.90;;;;;;5496772;26;20009;-86
2024/04/21 10:40:44;;;;;;;3.28;1.60;;;10.60;99.90;;;;;;5486456;26;20059;-86
2024/04/21 10:43:11;;;;;;;2.88;1.60;;;10.20;99.90;;;;;;5496235;26;20455;-86
2024/04/21 10:45:39;;;;;;;2.72;1.55;;;10.00;99.90;;;;;;5511512;26;20074;-85
2024/04/21 10:48:07;;;;;;;4.10;1.80;;;9.80;99.90;;;;;;5496725;26;20010;-86
2024/04/21 10:50:36;;;;;;;3.55;1.50;;;9.70;99.90;;;;;;5453659;26;20002;-86
2024/04/21 10:53:10;;;;;;;3.90;1.80;;;10.00;99.90;;;;;;5510365;26;20020;-86
2024/04/21 10:55:37;;;;;;;3.40;1.70;;;10.10;99.90;;;;;;5496315;26;20010;-86
2024/04/21 10:58:04;;;;;;;3.63;1.60;;;10.20;99.90;;;;;;5466655;26;20006;-86
2024/04/21 11:00:31;;;;;;;2.15;1.25;;;10.30;99.90;;;;;;5500690;26;20006;-86
2024/04/21 11:02:57;;;;;;;3.45;1.38;;;10.30;99.90;;;;;;5509774;25;20020;-86
2024/04/21 11:05:31;;;;;;;3.15;1.45;;;10.10;99.90;;;;;;5508784;26;20006;-86
2024/04/21 11:07:58;;;;;;;3.45;1.50;;;10.10;99.90;;;;;;5492967;26;20007;-86
2024/04/21 11:10:26;;;;;;;3.65;1.70;;;10.00;99.90;;;;;;5508544;26;20038;-86
2024/04/21 11:12:53;;;;;;;4.38;1.60;;;10.00;99.90;;;;;;5502423;26;20005;-86
2024/04/21 11:15:20;;;;;;;3.55;1.67;;;9.80;99.90;;;;;;5527808;26;21277;-86
2024/04/21 11:17:57;;;;;;;3.38;1.40;;;9.70;99.90;;;;;;5496426;26;20014;-86
2024/04/21 11:20:24;;;;;;;3.58;1.70;;;9.60;99.90;;;;;;5520728;26;20090;-86
2024/04/21 11:22:51;;;;;;;3.10;1.52;;;9.50;99.90;;;;;;5536908;26;20014;-86
2024/04/21 11:25:18;;;;;;;3.33;1.50;;;9.40;99.90;;;;;;5508288;26;20017;-86
2024/04/21 11:27:45;;;;;;;3.53;1.70;;;9.40;99.90;;;;;;5490296;26;20007;-86
2024/04/21 11:30:12;;;;;;;4.45;1.98;;;9.50;99.90;;;;;;5460457;26;20091;-86
2024/04/21 11:32:39;;;;;;;3.72;1.60;;;9.50;99.90;;;;;;5496091;26;20038;-86
2024/04/21 11:35:08;;;;;;;4.20;1.75;;;9.70;99.90;;;;;;5511857;26;20439;-86
2024/04/21 11:37:34;;;;;;;4.82;2.20;;;10.10;99.90;;;;;;5538960;26;20049;-86
2024/04/21 11:40:01;;;;;;;3.95;1.80;;;10.90;99.90;;;;;;5531488;26;20006;-86
2024/04/21 11:42:28;;;;;;;2.90;1.45;;;10.60;99.90;;;;;;5517380;26;20735;-86
2024/04/21 11:44:55;;;;;;;4.18;1.80;;;10.30;99.90;;;;;;5495071;26;20353;-86
2024/04/21 11:47:22;;;;;;;3.67;1.40;;;10.30;99.90;;;;;;5499982;26;20678;-86
2024/04/21 11:49:49;;;;;;;3.05;1.67;;;10.30;99.90;;;;;;5495266;26;20018;-86
2024/04/21 11:52:16;;;;;;;3.28;1.30;;;10.00;99.90;;;;;;5517252;26;20029;-86
2024/04/21 11:54:43;;;;;;;2.90;1.50;;;9.90;99.90;;;;;;5487113;26;20007;-86
2024/04/21 11:57:09;;;;;;;3.55;1.60;;;10.00;99.90;;;;;;5539185;26;20137;-86
2024/04/21 11:59:36;;;;;;;2.55;1.33;;;10.00;99.90;;;;;;5491345;26;20007;-86
2024/04/21 12:02:03;;;;;;;3.80;1.90;;;9.80;99.90;;;;;;5490502;26;20005;-86
2024/04/21 12:05:00;;;;;;;3.05;1.73;;;9.80;99.90;;;;;;5498264;26;20466;-86
2024/04/21 12:07:26;;;;;;;2.88;1.48;;;9.90;99.90;;;;;;5482303;26;20013;-86
2024/04/21 12:09:53;;;;;;;3.72;1.75;;;10.00;99.90;;;;;;5524407;26;20006;-86
2024/04/21 12:12:20;;;;;;;4.70;1.45;;;9.80;99.90;;;;;;5505271;26;20006;-86
2024/04/21 12:14:47;;;;;;;3.90;1.50;;;9.70;99.90;;;;;;5488547;26;20813;-86
2024/04/21 12:17:17;;;;;;;2.65;1.50;;;9.60;99.90;;;;;;5505533;26;20006;-86
2024/04/21 12:19:43;;;;;;;2.75;1.30;;;10.10;99.90;;;;;;5495304;26;20021;-85
2024/04/21 12:22:13;;;;;;;3.53;1.50;;;9.40;99.90;;;;;;5523421;26;20017;-86
2024/04/21 12:24:39;;;;;;;3.45;1.50;;;9.40;99.90;;;;;;5537329;26;20018;-86
2024/04/21 12:27:06;;;;;;;3.42;1.80;;;9.40;99.90;;;;;;5521044;26;20348;-86
2024/04/21 12:29:33;;;;;;;3.38;1.55;;;9.70;99.90;;;;;;5524354;26;20458;-86
2024/04/21 12:31:59;;;;;;;3.55;1.77;;;9.60;99.90;;;;;;5484808;26;20007;-86
2024/04/21 12:34:26;;;;;;;3.50;1.50;;;9.90;99.90;;;;;;5494569;26;20463;-86
2024/04/21 12:36:53;;;;;;;3.63;1.65;;;10.30;99.90;;;;;;5502398;26;20351;-86
2024/04/21 12:39:20;;;;;;;3.33;1.60;;;10.60;99.90;;;;;;5469170;26;20017;-86
2024/04/21 12:41:47;;;;;;;2.05;1.13;;;11.00;99.90;;;;;;5509786;26;20006;-86
2024/04/21 12:44:14;;;;;;;2.67;1.40;;;10.90;99.90;;;;;;5489765;26;20010;-87
2024/04/21 12:46:43;;;;;;;3.92;1.85;;;10.70;99.90;;;;;;5514803;26;20099;-87
2024/04/21 12:49:09;;;;;;;3.00;1.77;;;10.90;99.90;;;;;;5483603;26;20460;-86
2024/04/21 12:51:36;;;;;;;1.95;1.10;;;10.30;99.90;;;;;;5495403;26;20097;-86
2024/04/21 12:54:04;;;;;;;2.75;1.52;;;10.10;99.90;;;;;;5487143;26;20006;-87
2024/04/21 12:56:31;;;;;;;3.55;1.65;;;10.00;99.90;;;;;;5498903;26;20013;-86
2024/04/21 12:58:58;;;;;;;2.83;1.45;;;9.90;99.90;;;;;;5513285;26;20034;-87
2024/04/21 13:01:24;;;;;;;3.00;1.65;;;10.10;99.90;;;;;;5535482;26;20022;-86
2024/04/21 13:03:51;;;;;;;3.65;1.63;;;10.30;99.90;;;;;;5499392;26;20792;-87
2024/04/21 13:06:18;;;;;;;3.13;1.60;;;10.50;99.90;;;;;;5504240;26;20006;-86
2024/04/21 13:08:45;;;;;;;3.38;1.80;;;10.70;99.90;;;;;;5495553;26;20018;-86